createdAt,value
2023-01-10T00:00:48.494Z,7.20
2023-01-10T00:03:36.744Z,7.20
2023-01-10T00:06:23.742Z,7.20
2023-01-10T00:09:11.819Z,7.20
2023-01-10T00:12:16.547Z,7.20
2023-01-10T00:15:03.375Z,7.10
2023-01-10T00:17:50.325Z,7.10
2023-01-10T00:20:39.046Z,7.10
2023-01-10T00:23:25.727Z,7.10
2023-01-10T00:26:13.252Z,7.10
2023-01-10T00:28:59.592Z,7.10
2023-01-10T00:31:46.445Z,7.00
2023-01-10T00:34:34.830Z,7.00
2023-01-10T00:37:23.398Z,7.00
2023-01-10T00:40:13.372Z,7.00
2023-01-10T00:43:17.757Z,6.90
2023-01-10T00:46:05.105Z,6.90
2023-01-10T00:48:52.835Z,6.90
2023-01-10T00:51:39.613Z,6.90
2023-01-10T00:54:27.838Z,6.90
2023-01-10T00:57:14.340Z,6.80
2023-01-10T01:00:01.610Z,6.80
2023-01-10T01:02:48.426Z,6.80
2023-01-10T01:05:35.313Z,6.80
2023-01-10T01:08:22.187Z,6.80
2023-01-10T01:11:10.277Z,6.80
2023-01-10T01:13:57.160Z,6.80
2023-01-10T01:16:44.033Z,6.70
2023-01-10T01:19:30.852Z,6.70
2023-01-10T01:22:17.705Z,6.70
2023-01-10T01:25:05.962Z,6.70
2023-01-10T01:27:54.128Z,6.70
2023-01-10T01:30:40.845Z,6.70
2023-01-10T01:33:27.761Z,6.70
2023-01-10T01:36:14.856Z,6.70
2023-01-10T01:39:01.368Z,6.70
2023-01-10T01:42:00.534Z,6.70
2023-01-10T01:45:34.932Z,6.70
2023-01-10T01:48:38.484Z,6.70
2023-01-10T01:51:30.773Z,6.70
2023-01-10T01:54:19.176Z,6.70
2023-01-10T01:57:14.747Z,6.70
2023-01-10T02:00:05.045Z,6.70
2023-01-10T02:03:02.632Z,6.70
2023-01-10T02:05:50.069Z,6.70
2023-01-10T02:08:37.898Z,6.70
2023-01-10T02:11:24.825Z,6.70
2023-01-10T02:14:13.978Z,6.70
2023-01-10T02:17:00.615Z,6.70
2023-01-10T02:19:55.607Z,6.70
2023-01-10T02:23:32.872Z,6.70
2023-01-10T02:26:59.116Z,6.70
2023-01-10T02:30:47.710Z,6.70
2023-01-10T02:33:46.076Z,6.70
2023-01-10T02:36:45.349Z,6.70
2023-01-10T02:39:57.510Z,6.70
2023-01-10T02:42:55.101Z,6.70
2023-01-10T02:45:48.641Z,6.70
2023-01-10T02:48:36.473Z,6.70
2023-01-10T02:51:27.079Z,6.60
2023-01-10T02:54:19.403Z,6.60
2023-01-10T02:57:26.188Z,6.60
2023-01-10T03:00:42.132Z,6.60
2023-01-10T03:03:42.720Z,6.60
2023-01-10T03:06:42.041Z,6.60
2023-01-10T03:09:36.614Z,6.60
2023-01-10T03:12:28.917Z,6.50
2023-01-10T03:15:20.698Z,6.50
2023-01-10T03:18:15.033Z,6.50
2023-01-10T03:21:07.238Z,6.50
2023-01-10T03:24:01.658Z,6.50
2023-01-10T03:26:59.090Z,6.50
2023-01-10T03:29:55.520Z,6.50
2023-01-10T03:32:43.930Z,6.60
2023-01-10T03:35:42.737Z,6.50
2023-01-10T03:38:46.488Z,6.50
2023-01-10T03:41:40.715Z,6.50
2023-01-10T03:44:44.110Z,6.50
2023-01-10T03:47:40.933Z,6.60
2023-01-10T03:50:29.613Z,6.50
2023-01-10T03:53:17.835Z,6.60
2023-01-10T03:56:07.717Z,6.60
2023-01-10T03:58:54.324Z,6.50
2023-01-10T04:01:40.788Z,6.50
2023-01-10T04:04:27.649Z,6.50
2023-01-10T04:07:14.422Z,6.50
2023-01-10T04:10:01.057Z,6.50
2023-01-10T04:12:49.182Z,6.50
2023-01-10T04:15:35.904Z,6.50
2023-01-10T04:18:22.395Z,6.50
2023-01-10T04:21:09.063Z,6.50
2023-01-10T04:23:55.557Z,6.50
2023-01-10T04:26:42.003Z,6.50
2023-01-10T04:29:30.393Z,6.40
2023-01-10T04:32:16.973Z,6.40
2023-01-10T04:35:03.784Z,6.40
2023-01-10T04:37:50.509Z,6.40
2023-01-10T04:40:37.082Z,6.40
2023-01-10T04:43:24.616Z,6.40
2023-01-10T04:46:12.358Z,6.40
2023-01-10T04:48:59.269Z,6.40
2023-01-10T04:51:46.064Z,6.40
2023-01-10T04:54:32.662Z,6.40
2023-01-10T04:57:19.194Z,6.40
2023-01-10T05:00:07.969Z,6.40
2023-01-10T05:02:58.797Z,6.40
2023-01-10T05:05:45.241Z,6.40
2023-01-10T05:08:32.444Z,6.40
2023-01-10T05:11:19.413Z,6.40
2023-01-10T05:14:05.944Z,6.40
2023-01-10T05:16:52.818Z,6.50
2023-01-10T05:19:40.719Z,6.50
2023-01-10T05:22:27.395Z,6.50
2023-01-10T05:25:14.373Z,6.50
2023-01-10T05:28:01.354Z,6.50
2023-01-10T05:30:47.933Z,6.50
2023-01-10T05:33:38.326Z,6.40
2023-01-10T05:36:26.519Z,6.40
2023-01-10T05:39:15.150Z,6.40
2023-01-10T05:42:02.200Z,6.40
2023-01-10T05:44:48.908Z,6.40
2023-01-10T05:47:35.542Z,6.40
2023-01-10T05:50:22.665Z,6.40
2023-01-10T05:53:10.529Z,6.40
2023-01-10T05:55:59.376Z,6.40
2023-01-10T05:58:47.421Z,6.40
2023-01-10T06:01:36.067Z,6.40
2023-01-10T06:04:22.613Z,6.40
2023-01-10T06:07:09.445Z,6.40
2023-01-10T06:09:57.254Z,6.40
2023-01-10T06:12:44.410Z,6.40
2023-01-10T06:15:31.292Z,6.40
2023-01-10T06:18:18.048Z,6.40
2023-01-10T06:21:04.926Z,6.40
2023-01-10T06:23:51.435Z,6.40
2023-01-10T06:26:39.462Z,6.40
2023-01-10T06:29:26.287Z,6.40
2023-01-10T06:32:13.106Z,6.40
2023-01-10T06:34:59.900Z,6.40
2023-01-10T06:37:46.897Z,6.40
2023-01-10T06:40:33.401Z,6.40
2023-01-10T06:43:21.219Z,6.40
2023-01-10T06:46:09.805Z,6.40
2023-01-10T06:48:56.441Z,6.40
2023-01-10T06:51:42.771Z,6.40
2023-01-10T06:54:29.261Z,6.40
2023-01-10T06:57:15.970Z,6.40
2023-01-10T07:00:06.159Z,6.30
2023-01-10T07:02:54.296Z,6.30
2023-01-10T07:05:40.985Z,6.30
2023-01-10T07:08:27.486Z,6.30
2023-01-10T07:11:17.860Z,6.30
2023-01-10T07:14:04.812Z,6.20
2023-01-10T07:16:52.687Z,6.20
2023-01-10T07:19:39.184Z,6.20
2023-01-10T07:22:25.843Z,6.10
2023-01-10T07:25:12.269Z,6.10
2023-01-10T07:27:58.777Z,6.10
2023-01-10T07:30:45.534Z,6.10
2023-01-10T07:33:33.483Z,6.10
2023-01-10T07:36:20.360Z,6.10
2023-01-10T07:39:07.350Z,6.00
2023-01-10T07:41:54.299Z,6.00
2023-01-10T07:44:41.033Z,6.00
2023-01-10T07:47:28.464Z,6.00
2023-01-10T07:50:18.124Z,6.00
2023-01-10T07:53:08.275Z,6.00
2023-01-10T07:55:54.982Z,6.00
2023-01-10T07:58:41.758Z,6.00
2023-01-10T08:01:29.570Z,6.00
2023-01-10T08:04:16.126Z,6.00
2023-01-10T08:07:04.145Z,6.00
2023-01-10T08:09:50.547Z,6.00
2023-01-10T08:12:37.039Z,5.90
2023-01-10T08:15:23.555Z,5.90
2023-01-10T08:18:10.356Z,6.00
2023-01-10T08:20:57.052Z,5.90
2023-01-10T08:23:44.911Z,6.00
2023-01-10T08:26:31.676Z,6.00
2023-01-10T08:29:18.271Z,5.90
2023-01-10T08:32:05.257Z,5.90
2023-01-10T08:34:51.745Z,6.00
2023-01-10T08:37:38.441Z,5.90
2023-01-10T08:40:26.561Z,5.90
2023-01-10T08:43:16.153Z,6.00
2023-01-10T08:46:02.681Z,6.00
2023-01-10T08:48:50.256Z,6.00
2023-01-10T08:51:37.204Z,6.00
2023-01-10T08:54:24.236Z,6.10
2023-01-10T08:57:12.403Z,6.10
2023-01-10T08:59:59.307Z,6.10
2023-01-10T09:02:46.032Z,6.10
2023-01-10T09:05:32.820Z,6.20
2023-01-10T09:08:19.338Z,6.20
2023-01-10T09:11:06.909Z,6.30
2023-01-10T09:13:54.829Z,6.30
2023-01-10T09:16:43.093Z,6.40
2023-01-10T09:19:30.102Z,6.40
2023-01-10T09:22:16.465Z,6.50
2023-01-10T09:25:03.289Z,6.50
2023-01-10T09:27:58.048Z,6.50
2023-01-10T09:30:46.507Z,6.60
2023-01-10T09:33:45.806Z,6.60
2023-01-10T09:36:33.612Z,6.60
2023-01-10T09:39:21.364Z,6.60
2023-01-10T09:42:28.259Z,6.60
2023-01-10T09:45:22.783Z,6.70
2023-01-10T09:48:23.875Z,6.70
2023-01-10T09:51:30.550Z,6.70
2023-01-10T09:54:24.561Z,6.70
2023-01-10T09:57:19.722Z,6.80
2023-01-10T10:00:10.177Z,6.80
2023-01-10T10:02:57.760Z,6.80
2023-01-10T10:05:46.056Z,6.80
2023-01-10T10:08:32.590Z,6.80
2023-01-10T10:11:46.686Z,6.90
2023-01-10T10:14:55.698Z,6.90
2023-01-10T10:17:53.937Z,7.00
2023-01-10T10:20:56.113Z,7.00
2023-01-10T10:24:00.710Z,7.10
2023-01-10T10:26:57.281Z,7.20
2023-01-10T10:30:28.195Z,7.30
2023-01-10T10:33:39.894Z,7.30
2023-01-10T10:36:39.234Z,7.40
2023-01-10T10:39:38.309Z,7.40
2023-01-10T10:42:32.548Z,7.50
2023-01-10T10:45:25.472Z,7.50
2023-01-10T10:48:18.387Z,7.50
2023-01-10T10:51:13.512Z,7.60
2023-01-10T10:54:01.713Z,7.60
2023-01-10T10:56:48.780Z,7.60
2023-01-10T10:59:36.293Z,7.70
2023-01-10T11:02:27.382Z,7.70
2023-01-10T11:05:22.251Z,7.70
2023-01-10T11:08:12.997Z,7.80
2023-01-10T11:11:07.665Z,7.80
2023-01-10T11:13:58.109Z,7.90
2023-01-10T11:16:45.438Z,7.90
2023-01-10T11:19:32.467Z,7.90
2023-01-10T11:22:19.458Z,8.00
2023-01-10T11:25:15.978Z,8.00
2023-01-10T11:28:06.120Z,8.00
2023-01-10T11:30:53.547Z,8.00
2023-01-10T11:33:42.921Z,8.00
2023-01-10T11:36:29.741Z,8.00
2023-01-10T11:39:17.760Z,8.00
2023-01-10T11:42:30.626Z,8.00
2023-01-10T11:45:32.741Z,8.00
2023-01-10T11:48:42.402Z,8.00
2023-01-10T11:51:35.716Z,7.90
2023-01-10T11:54:25.958Z,7.90
2023-01-10T11:57:20.437Z,8.00
2023-01-10T12:00:11.403Z,8.00
2023-01-10T12:02:59.140Z,8.00
2023-01-10T12:05:53.709Z,8.00
2023-01-10T12:08:42.353Z,7.90
2023-01-10T12:11:32.625Z,7.90
2023-01-10T12:14:21.433Z,7.90
2023-01-10T12:17:12.973Z,7.90
2023-01-10T12:20:07.284Z,7.90
2023-01-10T12:23:00.382Z,7.90
2023-01-10T12:25:50.028Z,7.90
2023-01-10T12:28:38.543Z,7.90
2023-01-10T12:31:25.443Z,7.90
2023-01-10T12:34:20.228Z,7.80
2023-01-10T12:37:18.104Z,7.90
2023-01-10T12:40:15.418Z,7.80
2023-01-10T12:43:30.492Z,7.80
2023-01-10T12:46:46.796Z,7.80
2023-01-10T12:49:37.300Z,7.80
2023-01-10T12:52:35.100Z,7.80
2023-01-10T12:55:25.836Z,7.80
2023-01-10T12:58:22.108Z,7.80
2023-01-10T13:01:12.664Z,7.80
2023-01-10T13:04:04.652Z,7.80
2023-01-10T13:06:52.749Z,7.80
2023-01-10T13:09:43.937Z,7.80
2023-01-10T13:12:37.391Z,7.80
2023-01-10T13:15:29.608Z,7.80
2023-01-10T13:18:25.663Z,7.80
2023-01-10T13:21:14.014Z,7.80
2023-01-10T13:24:04.287Z,7.80
2023-01-10T13:26:57.032Z,7.80
2023-01-10T13:29:44.820Z,7.90
2023-01-10T13:32:35.866Z,7.90
2023-01-10T13:35:22.822Z,7.90
2023-01-10T13:38:21.048Z,7.90
2023-01-10T13:41:30.847Z,7.90
2023-01-10T13:44:18.875Z,7.90
2023-01-10T13:47:05.293Z,7.90
2023-01-10T13:49:52.059Z,7.90
2023-01-10T13:52:39.120Z,7.90
2023-01-10T13:55:35.030Z,7.90
2023-01-10T13:59:00.584Z,7.90
2023-01-10T14:02:13.897Z,7.90
2023-01-10T14:05:03.923Z,7.90
2023-01-10T14:07:54.906Z,7.90
2023-01-10T14:10:42.129Z,7.90
2023-01-10T14:13:28.802Z,7.90
2023-01-10T14:16:36.163Z,7.90
2023-01-10T14:19:30.496Z,7.90
2023-01-10T14:22:29.242Z,7.90
2023-01-10T14:25:21.576Z,7.90
2023-01-10T14:28:08.698Z,7.90
2023-01-10T14:31:08.379Z,7.90
2023-01-10T14:33:56.413Z,7.90
2023-01-10T14:36:56.531Z,7.80
2023-01-10T14:39:44.707Z,7.80
2023-01-10T14:42:31.856Z,7.80
2023-01-10T14:45:31.587Z,7.80
2023-01-10T14:48:31.052Z,7.80
2023-01-10T14:51:22.356Z,7.80
2023-01-10T14:54:15.816Z,7.80
2023-01-10T14:57:02.820Z,7.80
2023-01-10T14:59:51.876Z,7.80
2023-01-10T15:02:38.605Z,7.80
2023-01-10T15:05:27.983Z,7.80
2023-01-10T15:08:23.949Z,7.70
2023-01-10T15:11:15.112Z,7.70
2023-01-10T15:14:10.814Z,7.70
2023-01-10T15:17:02.344Z,7.70
2023-01-10T15:19:53.424Z,7.70
2023-01-10T15:22:40.031Z,7.70
2023-01-10T15:25:37.943Z,7.70
2023-01-10T15:28:27.534Z,7.70
2023-01-10T15:31:16.848Z,7.70
2023-01-10T15:34:12.980Z,7.70
2023-01-10T15:37:03.766Z,7.70
2023-01-10T15:39:50.814Z,7.70
2023-01-10T15:42:38.665Z,7.70
2023-01-10T15:45:37.607Z,7.60
2023-01-10T15:48:38.517Z,7.60
2023-01-10T15:51:29.892Z,7.60
2023-01-10T15:54:32.792Z,7.60
2023-01-10T15:57:29.782Z,7.60
2023-01-10T16:00:18.982Z,7.60
2023-01-10T16:03:22.851Z,7.60
2023-01-10T16:06:23.771Z,7.60
2023-01-10T16:09:21.251Z,7.60
2023-01-10T16:12:41.566Z,7.50
2023-01-10T16:15:32.023Z,7.50
2023-01-10T16:18:20.252Z,7.50
2023-01-10T16:21:11.275Z,7.50
2023-01-10T16:23:58.485Z,7.50
2023-01-10T16:26:45.841Z,7.50
2023-01-10T16:29:35.706Z,7.50
2023-01-10T16:32:22.318Z,7.50
2023-01-10T16:35:12.113Z,7.50
2023-01-10T16:38:00.834Z,7.50
2023-01-10T16:42:04.650Z,7.50
2023-01-10T16:44:52.222Z,7.40
2023-01-10T16:47:39.404Z,7.40
2023-01-10T16:50:27.655Z,7.40
2023-01-10T16:53:16.825Z,7.40
2023-01-10T16:56:03.918Z,7.40
2023-01-10T16:58:53.099Z,7.40
2023-01-10T17:01:43.940Z,7.40
2023-01-10T17:04:35.049Z,7.40
2023-01-10T17:07:23.396Z,7.40
2023-01-10T17:10:11.689Z,7.40
2023-01-10T17:12:59.066Z,7.40
2023-01-10T17:15:45.820Z,7.40
2023-01-10T17:18:32.851Z,7.40
2023-01-10T17:21:23.506Z,7.40
2023-01-10T17:24:13.096Z,7.40
2023-01-10T17:26:59.876Z,7.30
2023-01-10T17:29:46.740Z,7.30
2023-01-10T17:32:33.418Z,7.30
2023-01-10T17:35:22.352Z,7.20
2023-01-10T17:38:13.394Z,7.20
2023-01-10T17:41:03.066Z,7.10
2023-01-10T17:43:49.597Z,7.10
2023-01-10T17:46:36.081Z,7.00
2023-01-10T17:49:23.076Z,7.00
2023-01-10T17:55:49.201Z,6.90
2023-01-10T17:58:37.761Z,6.80
2023-01-10T18:01:26.390Z,6.80
2023-01-10T18:04:13.743Z,6.70
2023-01-10T18:07:29.239Z,6.70
2023-01-10T18:10:16.869Z,6.70
2023-01-10T18:13:03.803Z,6.70
2023-01-10T18:15:58.624Z,6.70
2023-01-10T18:18:45.296Z,6.70
2023-01-10T18:21:32.105Z,6.70
2023-01-10T18:24:18.874Z,6.60
2023-01-10T18:27:05.888Z,6.60
2023-01-10T18:29:54.219Z,6.60
2023-01-10T18:32:42.385Z,6.60
2023-01-10T18:35:30.217Z,6.60
2023-01-10T18:38:17.352Z,6.60
2023-01-10T18:41:05.312Z,6.60
2023-01-10T18:43:52.425Z,6.60
2023-01-10T18:46:39.555Z,6.60
2023-01-10T18:49:28.879Z,6.60
2023-01-10T18:52:16.602Z,6.60
2023-01-10T18:55:03.559Z,6.60
2023-01-10T18:57:50.308Z,6.60
2023-01-10T19:00:36.998Z,6.60
2023-01-10T19:03:24.988Z,6.60
2023-01-10T19:06:16.646Z,6.60
2023-01-10T19:09:04.012Z,6.60
2023-01-10T19:11:50.829Z,6.60
2023-01-10T19:15:06.384Z,6.60
2023-01-10T19:17:53.157Z,6.60
2023-01-10T19:20:40.165Z,6.60
2023-01-10T19:23:29.318Z,6.60
2023-01-10T19:26:20.736Z,6.60
2023-01-10T19:29:07.770Z,6.70
2023-01-10T19:31:56.962Z,6.70
2023-01-10T19:34:46.299Z,6.70
2023-01-10T19:37:33.697Z,6.70
2023-01-10T19:40:22.343Z,6.70
2023-01-10T19:43:08.990Z,6.70
2023-01-10T19:45:56.213Z,6.70
2023-01-10T19:48:43.268Z,6.70
2023-01-10T19:51:30.803Z,6.80
2023-01-10T19:54:18.559Z,6.80
2023-01-10T19:57:08.194Z,6.80
2023-01-10T19:59:56.555Z,6.80
2023-01-10T20:02:43.676Z,6.80
2023-01-10T20:05:36.323Z,6.80
2023-01-10T20:08:24.329Z,6.80
2023-01-10T20:11:11.651Z,6.80
2023-01-10T20:14:01.539Z,6.80
2023-01-10T20:16:50.173Z,6.80
2023-01-10T20:19:37.185Z,6.80
2023-01-10T20:22:24.167Z,6.80
2023-01-10T20:25:11.510Z,6.80
2023-01-10T20:27:58.835Z,6.80
2023-01-10T20:30:47.888Z,6.90
2023-01-10T20:33:44.335Z,6.80
2023-01-10T20:36:34.016Z,6.90
2023-01-10T20:39:23.080Z,6.90
2023-01-10T20:42:10.959Z,6.90
2023-01-10T20:44:57.985Z,6.90
2023-01-10T20:47:50.601Z,7.00
2023-01-10T20:50:37.336Z,7.00
2023-01-10T20:53:23.628Z,7.00
2023-01-10T20:56:15.133Z,7.00
2023-01-10T20:59:03.082Z,7.00
2023-01-10T21:01:49.866Z,7.00
2023-01-10T21:04:39.809Z,7.00
2023-01-10T21:07:26.804Z,7.00
2023-01-10T21:10:13.468Z,7.00
2023-01-10T21:12:59.951Z,7.00
2023-01-10T21:15:48.284Z,7.00
2023-01-10T21:18:40.851Z,7.00
2023-01-10T21:21:28.720Z,7.00
2023-01-10T21:24:15.695Z,7.00
2023-01-10T21:27:02.287Z,7.00
2023-01-10T21:29:48.763Z,7.00
2023-01-10T21:32:35.327Z,7.00
2023-01-10T21:35:21.844Z,7.00
2023-01-10T21:38:10.436Z,7.00
2023-01-10T21:41:05.134Z,7.00
2023-01-10T21:43:51.652Z,7.00
2023-01-10T21:46:38.473Z,7.10
2023-01-10T21:49:25.307Z,7.10
2023-01-10T21:52:11.729Z,7.10
2023-01-10T21:54:59.925Z,7.10
2023-01-10T21:57:46.699Z,7.10
2023-01-10T22:00:33.151Z,7.10
2023-01-10T22:03:19.655Z,7.10
2023-01-10T22:06:07.276Z,7.20
2023-01-10T22:08:54.333Z,7.20
2023-01-10T22:11:42.191Z,7.20
2023-01-10T22:14:28.694Z,7.20
2023-01-10T22:17:16.297Z,7.20
2023-01-10T22:20:02.764Z,7.30
2023-01-10T22:22:49.358Z,7.30
2023-01-10T22:25:36.200Z,7.30
2023-01-10T22:28:24.338Z,7.40
2023-01-10T22:31:11.061Z,7.40
2023-01-10T22:33:57.501Z,7.40
2023-01-10T22:36:44.629Z,7.40
2023-01-10T22:39:31.095Z,7.50
2023-01-10T22:42:36.106Z,7.50
2023-01-10T22:45:24.245Z,7.50
2023-01-10T22:48:11.188Z,7.50
2023-01-10T22:50:59.305Z,7.50
2023-01-10T22:53:50.916Z,7.60
2023-01-10T22:56:38.135Z,7.60
2023-01-10T22:59:24.820Z,7.60
2023-01-10T23:02:14.066Z,7.60
2023-01-10T23:05:00.810Z,7.70
2023-01-10T23:07:56.407Z,7.70
2023-01-10T23:10:46.736Z,7.70
2023-01-10T23:13:34.018Z,7.70
2023-01-10T23:16:28.261Z,7.70
2023-01-10T23:19:16.286Z,7.70
2023-01-10T23:22:02.690Z,7.70
2023-01-10T23:24:49.248Z,7.70
2023-01-10T23:27:36.366Z,7.70
2023-01-10T23:30:26.540Z,7.70
2023-01-10T23:33:14.252Z,7.70
2023-01-10T23:36:02.606Z,7.70
2023-01-10T23:38:49.532Z,7.80
2023-01-10T23:41:36.079Z,7.80
2023-01-10T23:44:22.777Z,7.80
2023-01-10T23:47:09.480Z,7.80
2023-01-10T23:49:56.000Z,7.80
2023-01-10T23:52:44.030Z,7.80
2023-01-10T23:55:31.942Z,7.80
2023-01-10T23:58:19.043Z,7.80
